sensor_id;sensor_type;location;lat;lon;timestamp;temperature;humidity
10344;DHT22;5217;43.960;10.954;2022-09-23T00:00:03;21.00;68.70
10344;DHT22;5217;43.960;10.954;2022-09-23T00:02:34;21.00;68.80
10344;DHT22;5217;43.960;10.954;2022-09-23T00:05:02;20.90;68.60
10344;DHT22;5217;43.960;10.954;2022-09-23T00:07:31;20.90;68.60
10344;DHT22;5217;43.960;10.954;2022-09-23T00:09:59;20.90;68.70
10344;DHT22;5217;43.960;10.954;2022-09-23T00:12:27;20.90;68.70
10344;DHT22;5217;43.960;10.954;2022-09-23T00:14:56;20.80;68.80
10344;DHT22;5217;43.960;10.954;2022-09-23T00:17:27;20.80;68.90
10344;DHT22;5217;43.960;10.954;2022-09-23T00:19:56;20.80;69.00
10344;DHT22;5217;43.960;10.954;2022-09-23T00:22:25;20.80;69.10
10344;DHT22;5217;43.960;10.954;2022-09-23T00:24:53;20.70;69.80
10344;DHT22;5217;43.960;10.954;2022-09-23T00:27:21;20.70;69.10
10344;DHT22;5217;43.960;10.954;2022-09-23T00:29:50;20.70;69.10
10344;DHT22;5217;43.960;10.954;2022-09-23T00:32:18;20.70;69.10
10344;DHT22;5217;43.960;10.954;2022-09-23T00:34:46;20.60;69.10
10344;DHT22;5217;43.960;10.954;2022-09-23T00:37:17;20.60;69.10
10344;DHT22;5217;43.960;10.954;2022-09-23T00:39:46;20.60;69.10
10344;DHT22;5217;43.960;10.954;2022-09-23T00:42:16;20.60;69.10
10344;DHT22;5217;43.960;10.954;2022-09-23T00:44:47;20.60;69.10
10344;DHT22;5217;43.960;10.954;2022-09-23T00:47:19;20.50;69.00
10344;DHT22;5217;43.960;10.954;2022-09-23T00:49:54;20.50;68.90
10344;DHT22;5217;43.960;10.954;2022-09-23T00:52:29;20.50;68.80
10344;DHT22;5217;43.960;10.954;2022-09-23T00:55:00;20.50;68.80
10344;DHT22;5217;43.960;10.954;2022-09-23T00:57:29;20.50;68.80
10344;DHT22;5217;43.960;10.954;2022-09-23T00:59:58;20.50;68.60
10344;DHT22;5217;43.960;10.954;2022-09-23T01:02:27;20.50;68.60
10344;DHT22;5217;43.960;10.954;2022-09-23T01:04:56;20.40;68.30
10344;DHT22;5217;43.960;10.954;2022-09-23T01:07:25;20.50;68.10
10344;DHT22;5217;43.960;10.954;2022-09-23T01:09:55;20.40;67.80
10344;DHT22;5217;43.960;10.954;2022-09-23T01:12:40;20.40;67.80
10344;DHT22;5217;43.960;10.954;2022-09-23T01:15:14;20.40;67.80
10344;DHT22;5217;43.960;10.954;2022-09-23T01:17:50;20.40;67.70
10344;DHT22;5217;43.960;10.954;2022-09-23T01:20:47;20.40;67.50
10344;DHT22;5217;43.960;10.954;2022-09-23T01:26:40;20.30;67.20
10344;DHT22;5217;43.960;10.954;2022-09-23T01:29:29;20.30;67.10
10344;DHT22;5217;43.960;10.954;2022-09-23T01:32:06;20.30;67.20
10344;DHT22;5217;43.960;10.954;2022-09-23T01:34:46;20.30;67.20
10344;DHT22;5217;43.960;10.954;2022-09-23T01:37:23;20.20;67.20
10344;DHT22;5217;43.960;10.954;2022-09-23T01:39:59;20.20;67.10
10344;DHT22;5217;43.960;10.954;2022-09-23T01:42:34;20.20;67.10
10344;DHT22;5217;43.960;10.954;2022-09-23T01:45:10;20.20;67.00
10344;DHT22;5217;43.960;10.954;2022-09-23T01:47:47;20.20;66.80
10344;DHT22;5217;43.960;10.954;2022-09-23T01:50:20;20.20;66.30
10344;DHT22;5217;43.960;10.954;2022-09-23T01:53:11;20.20;66.30
10344;DHT22;5217;43.960;10.954;2022-09-23T01:55:44;20.20;66.30
10344;DHT22;5217;43.960;10.954;2022-09-23T01:58:20;20.20;66.30
10344;DHT22;5217;43.960;10.954;2022-09-23T02:00:54;20.20;66.20
10344;DHT22;5217;43.960;10.954;2022-09-23T02:03:29;20.20;65.90
10344;DHT22;5217;43.960;10.954;2022-09-23T02:06:03;20.20;65.80
10344;DHT22;5217;43.960;10.954;2022-09-23T02:08:36;20.20;65.70
10344;DHT22;5217;43.960;10.954;2022-09-23T02:11:07;20.10;65.30
10344;DHT22;5217;43.960;10.954;2022-09-23T02:13:40;20.10;65.10
10344;DHT22;5217;43.960;10.954;2022-09-23T02:16:17;20.10;64.80
10344;DHT22;5217;43.960;10.954;2022-09-23T02:18:52;20.10;64.70
10344;DHT22;5217;43.960;10.954;2022-09-23T02:21:25;20.10;64.80
10344;DHT22;5217;43.960;10.954;2022-09-23T02:24:00;20.10;65.00
10344;DHT22;5217;43.960;10.954;2022-09-23T02:26:32;20.00;64.90
10344;DHT22;5217;43.960;10.954;2022-09-23T02:29:08;20.00;65.10
10344;DHT22;5217;43.960;10.954;2022-09-23T02:31:40;20.00;65.20
10344;DHT22;5217;43.960;10.954;2022-09-23T02:34:19;19.90;65.30
10344;DHT22;5217;43.960;10.954;2022-09-23T02:36:57;19.90;65.50
10344;DHT22;5217;43.960;10.954;2022-09-23T02:39:36;19.90;65.40
10344;DHT22;5217;43.960;10.954;2022-09-23T02:42:07;19.90;65.40
10344;DHT22;5217;43.960;10.954;2022-09-23T02:44:37;19.90;65.30
10344;DHT22;5217;43.960;10.954;2022-09-23T02:47:06;19.90;65.10
10344;DHT22;5217;43.960;10.954;2022-09-23T02:49:38;19.80;64.90
10344;DHT22;5217;43.960;10.954;2022-09-23T02:52:07;19.80;64.90
10344;DHT22;5217;43.960;10.954;2022-09-23T02:54:36;19.80;64.80
10344;DHT22;5217;43.960;10.954;2022-09-23T02:57:05;19.70;64.60
10344;DHT22;5217;43.960;10.954;2022-09-23T02:59:35;19.80;64.80
10344;DHT22;5217;43.960;10.954;2022-09-23T03:02:14;19.80;64.50
10344;DHT22;5217;43.960;10.954;2022-09-23T03:04:51;19.80;64.50
10344;DHT22;5217;43.960;10.954;2022-09-23T03:07:25;19.80;64.30
10344;DHT22;5217;43.960;10.954;2022-09-23T03:10:04;19.70;64.30
10344;DHT22;5217;43.960;10.954;2022-09-23T03:12:38;19.70;64.40
10344;DHT22;5217;43.960;10.954;2022-09-23T03:15:17;19.70;64.30
10344;DHT22;5217;43.960;10.954;2022-09-23T03:17:53;19.60;64.20
10344;DHT22;5217;43.960;10.954;2022-09-23T03:20:30;19.60;64.00
10344;DHT22;5217;43.960;10.954;2022-09-23T03:23:06;19.60;63.80
10344;DHT22;5217;43.960;10.954;2022-09-23T03:25:38;19.60;63.70
10344;DHT22;5217;43.960;10.954;2022-09-23T03:28:07;19.60;63.50
10344;DHT22;5217;43.960;10.954;2022-09-23T03:30:36;19.50;63.40
10344;DHT22;5217;43.960;10.954;2022-09-23T03:33:08;19.50;63.70
10344;DHT22;5217;43.960;10.954;2022-09-23T03:35:43;19.50;63.80
10344;DHT22;5217;43.960;10.954;2022-09-23T03:38:28;19.50;63.90
10344;DHT22;5217;43.960;10.954;2022-09-23T03:41:01;19.50;64.00
10344;DHT22;5217;43.960;10.954;2022-09-23T03:43:31;19.40;63.90
10344;DHT22;5217;43.960;10.954;2022-09-23T03:46:06;19.40;64.00
10344;DHT22;5217;43.960;10.954;2022-09-23T03:48:34;19.40;64.00
10344;DHT22;5217;43.960;10.954;2022-09-23T03:51:18;19.40;64.00
10344;DHT22;5217;43.960;10.954;2022-09-23T03:53:46;19.30;64.10
10344;DHT22;5217;43.960;10.954;2022-09-23T03:56:15;19.30;64.20
10344;DHT22;5217;43.960;10.954;2022-09-23T03:58:44;19.30;64.40
10344;DHT22;5217;43.960;10.954;2022-09-23T04:01:12;19.30;64.70
10344;DHT22;5217;43.960;10.954;2022-09-23T04:03:41;19.30;64.90
10344;DHT22;5217;43.960;10.954;2022-09-23T04:06:11;19.20;64.80
10344;DHT22;5217;43.960;10.954;2022-09-23T04:08:40;19.20;64.90
10344;DHT22;5217;43.960;10.954;2022-09-23T04:11:08;19.20;65.00
10344;DHT22;5217;43.960;10.954;2022-09-23T04:13:37;19.10;64.90
10344;DHT22;5217;43.960;10.954;2022-09-23T04:16:05;19.10;64.60
10344;DHT22;5217;43.960;10.954;2022-09-23T04:18:33;19.10;64.50
10344;DHT22;5217;43.960;10.954;2022-09-23T04:21:02;19.10;64.70
10344;DHT22;5217;43.960;10.954;2022-09-23T04:23:32;19.10;64.70
10344;DHT22;5217;43.960;10.954;2022-09-23T04:26:00;19.00;64.60
10344;DHT22;5217;43.960;10.954;2022-09-23T04:28:28;19.00;64.70
10344;DHT22;5217;43.960;10.954;2022-09-23T04:30:57;19.00;64.90
10344;DHT22;5217;43.960;10.954;2022-09-23T04:33:25;19.00;65.00
10344;DHT22;5217;43.960;10.954;2022-09-23T04:35:54;19.00;65.00
10344;DHT22;5217;43.960;10.954;2022-09-23T04:38:23;18.90;64.90
10344;DHT22;5217;43.960;10.954;2022-09-23T04:40:52;18.90;64.90
10344;DHT22;5217;43.960;10.954;2022-09-23T04:43:21;18.90;64.60
10344;DHT22;5217;43.960;10.954;2022-09-23T04:45:57;18.90;64.50
10344;DHT22;5217;43.960;10.954;2022-09-23T04:48:26;18.90;64.50
10344;DHT22;5217;43.960;10.954;2022-09-23T04:51:01;18.90;64.40
10344;DHT22;5217;43.960;10.954;2022-09-23T04:53:29;18.90;64.40
10344;DHT22;5217;43.960;10.954;2022-09-23T04:56:04;18.90;64.60
10344;DHT22;5217;43.960;10.954;2022-09-23T04:58:33;18.90;64.70
10344;DHT22;5217;43.960;10.954;2022-09-23T05:01:08;18.90;64.80
10344;DHT22;5217;43.960;10.954;2022-09-23T05:03:37;18.80;64.60
10344;DHT22;5217;43.960;10.954;2022-09-23T05:06:06;18.80;64.50
10344;DHT22;5217;43.960;10.954;2022-09-23T05:08:35;18.80;64.40
10344;DHT22;5217;43.960;10.954;2022-09-23T05:11:05;18.80;64.40
10344;DHT22;5217;43.960;10.954;2022-09-23T05:13:35;18.80;64.60
10344;DHT22;5217;43.960;10.954;2022-09-23T05:16:05;18.70;64.60
10344;DHT22;5217;43.960;10.954;2022-09-23T05:18:35;18.70;64.60
10344;DHT22;5217;43.960;10.954;2022-09-23T05:21:09;18.60;64.60
10344;DHT22;5217;43.960;10.954;2022-09-23T05:23:38;18.70;64.60
10344;DHT22;5217;43.960;10.954;2022-09-23T05:26:09;18.60;64.50
10344;DHT22;5217;43.960;10.954;2022-09-23T05:28:38;18.60;64.60
10344;DHT22;5217;43.960;10.954;2022-09-23T05:31:09;18.60;64.90
10344;DHT22;5217;43.960;10.954;2022-09-23T05:33:47;18.60;65.30
10344;DHT22;5217;43.960;10.954;2022-09-23T05:36:18;18.60;65.30
10344;DHT22;5217;43.960;10.954;2022-09-23T05:38:47;18.60;65.50
10344;DHT22;5217;43.960;10.954;2022-09-23T05:41:20;18.60;65.80
10344;DHT22;5217;43.960;10.954;2022-09-23T05:43:50;18.50;65.80
10344;DHT22;5217;43.960;10.954;2022-09-23T05:46:19;18.50;66.00
10344;DHT22;5217;43.960;10.954;2022-09-23T05:48:48;18.50;66.10
10344;DHT22;5217;43.960;10.954;2022-09-23T05:51:18;18.50;66.10
10344;DHT22;5217;43.960;10.954;2022-09-23T05:53:49;18.50;66.10
10344;DHT22;5217;43.960;10.954;2022-09-23T05:56:21;18.50;66.20
10344;DHT22;5217;43.960;10.954;2022-09-23T05:58:52;18.50;66.30
10344;DHT22;5217;43.960;10.954;2022-09-23T06:01:22;18.50;66.50
10344;DHT22;5217;43.960;10.954;2022-09-23T06:03:51;18.50;67.60
10344;DHT22;5217;43.960;10.954;2022-09-23T06:06:23;18.50;66.90
10344;DHT22;5217;43.960;10.954;2022-09-23T06:08:53;18.50;66.90
10344;DHT22;5217;43.960;10.954;2022-09-23T06:11:22;18.50;67.00
10344;DHT22;5217;43.960;10.954;2022-09-23T06:13:54;18.60;67.30
10344;DHT22;5217;43.960;10.954;2022-09-23T06:16:22;18.50;67.30
10344;DHT22;5217;43.960;10.954;2022-09-23T06:18:51;18.60;67.80
10344;DHT22;5217;43.960;10.954;2022-09-23T06:21:20;18.50;67.90
10344;DHT22;5217;43.960;10.954;2022-09-23T06:23:48;18.50;67.10
10344;DHT22;5217;43.960;10.954;2022-09-23T06:26:23;18.50;66.30
10344;DHT22;5217;43.960;10.954;2022-09-23T06:28:52;18.50;66.50
10344;DHT22;5217;43.960;10.954;2022-09-23T06:31:21;18.50;67.00
10344;DHT22;5217;43.960;10.954;2022-09-23T06:33:50;18.50;67.30
10344;DHT22;5217;43.960;10.954;2022-09-23T06:36:34;18.50;67.40
10344;DHT22;5217;43.960;10.954;2022-09-23T06:39:10;18.50;67.00
10344;DHT22;5217;43.960;10.954;2022-09-23T06:41:40;18.50;66.70
10344;DHT22;5217;43.960;10.954;2022-09-23T06:44:08;18.50;67.10
10344;DHT22;5217;43.960;10.954;2022-09-23T06:46:37;18.50;67.00
10344;DHT22;5217;43.960;10.954;2022-09-23T06:49:05;18.50;67.10
10344;DHT22;5217;43.960;10.954;2022-09-23T06:51:33;18.50;67.00
10344;DHT22;5217;43.960;10.954;2022-09-23T06:54:02;18.50;67.10
10344;DHT22;5217;43.960;10.954;2022-09-23T06:56:31;18.60;67.50
10344;DHT22;5217;43.960;10.954;2022-09-23T06:59:08;18.60;67.90
10344;DHT22;5217;43.960;10.954;2022-09-23T07:01:39;18.60;68.40
10344;DHT22;5217;43.960;10.954;2022-09-23T07:04:08;18.60;68.30
10344;DHT22;5217;43.960;10.954;2022-09-23T07:06:36;18.70;68.10
10344;DHT22;5217;43.960;10.954;2022-09-23T07:09:05;18.70;68.00
10344;DHT22;5217;43.960;10.954;2022-09-23T07:11:34;18.80;68.40
10344;DHT22;5217;43.960;10.954;2022-09-23T07:14:03;18.80;68.60
10344;DHT22;5217;43.960;10.954;2022-09-23T07:16:33;18.80;68.60
10344;DHT22;5217;43.960;10.954;2022-09-23T07:19:01;18.90;69.00
10344;DHT22;5217;43.960;10.954;2022-09-23T07:21:30;18.90;69.20
10344;DHT22;5217;43.960;10.954;2022-09-23T07:23:58;18.90;69.80
10344;DHT22;5217;43.960;10.954;2022-09-23T07:26:27;18.90;70.20
10344;DHT22;5217;43.960;10.954;2022-09-23T07:28:56;19.00;70.60
10344;DHT22;5217;43.960;10.954;2022-09-23T07:31:33;19.00;70.80
10344;DHT22;5217;43.960;10.954;2022-09-23T07:34:06;19.10;71.10
10344;DHT22;5217;43.960;10.954;2022-09-23T07:36:38;19.10;71.30
10344;DHT22;5217;43.960;10.954;2022-09-23T07:39:08;19.10;71.50
10344;DHT22;5217;43.960;10.954;2022-09-23T07:41:38;19.20;71.60
10344;DHT22;5217;43.960;10.954;2022-09-23T07:44:09;19.10;71.60
10344;DHT22;5217;43.960;10.954;2022-09-23T07:46:39;19.20;72.00
10344;DHT22;5217;43.960;10.954;2022-09-23T07:49:08;19.20;72.50
10344;DHT22;5217;43.960;10.954;2022-09-23T07:51:38;19.30;72.90
10344;DHT22;5217;43.960;10.954;2022-09-23T07:54:09;19.30;73.00
10344;DHT22;5217;43.960;10.954;2022-09-23T07:56:39;19.30;72.70
10344;DHT22;5217;43.960;10.954;2022-09-23T07:59:11;19.40;72.60
10344;DHT22;5217;43.960;10.954;2022-09-23T08:01:44;19.40;71.90
10344;DHT22;5217;43.960;10.954;2022-09-23T08:04:16;19.40;72.00
10344;DHT22;5217;43.960;10.954;2022-09-23T08:06:46;19.40;71.90
10344;DHT22;5217;43.960;10.954;2022-09-23T08:09:16;19.40;71.80
10344;DHT22;5217;43.960;10.954;2022-09-23T08:11:45;19.40;71.40
10344;DHT22;5217;43.960;10.954;2022-09-23T08:14:14;19.50;71.40
10344;DHT22;5217;43.960;10.954;2022-09-23T08:16:45;19.50;71.00
10344;DHT22;5217;43.960;10.954;2022-09-23T08:19:14;19.50;70.00
10344;DHT22;5217;43.960;10.954;2022-09-23T08:21:43;19.50;69.90
10344;DHT22;5217;43.960;10.954;2022-09-23T08:24:14;19.50;69.80
10344;DHT22;5217;43.960;10.954;2022-09-23T08:26:43;19.50;69.70
10344;DHT22;5217;43.960;10.954;2022-09-23T08:29:12;19.60;69.40
10344;DHT22;5217;43.960;10.954;2022-09-23T08:31:41;19.60;68.60
10344;DHT22;5217;43.960;10.954;2022-09-23T08:34:11;19.60;68.50
10344;DHT22;5217;43.960;10.954;2022-09-23T08:36:40;19.70;68.50
10344;DHT22;5217;43.960;10.954;2022-09-23T08:39:11;19.70;68.50
10344;DHT22;5217;43.960;10.954;2022-09-23T08:41:46;19.80;68.50
10344;DHT22;5217;43.960;10.954;2022-09-23T08:44:23;19.80;68.50
10344;DHT22;5217;43.960;10.954;2022-09-23T08:46:55;19.90;69.50
10344;DHT22;5217;43.960;10.954;2022-09-23T08:49:35;19.90;70.00
10344;DHT22;5217;43.960;10.954;2022-09-23T08:52:08;19.90;69.90
10344;DHT22;5217;43.960;10.954;2022-09-23T08:54:39;19.90;70.10
10344;DHT22;5217;43.960;10.954;2022-09-23T08:57:18;20.00;70.00
10344;DHT22;5217;43.960;10.954;2022-09-23T08:59:48;20.00;69.80
10344;DHT22;5217;43.960;10.954;2022-09-23T09:02:18;20.00;69.30
10344;DHT22;5217;43.960;10.954;2022-09-23T09:04:51;20.00;69.30
10344;DHT22;5217;43.960;10.954;2022-09-23T09:07:23;20.10;69.10
10344;DHT22;5217;43.960;10.954;2022-09-23T09:10:08;20.10;69.10
10344;DHT22;5217;43.960;10.954;2022-09-23T09:12:41;20.10;69.50
10344;DHT22;5217;43.960;10.954;2022-09-23T09:15:12;20.20;69.70
10344;DHT22;5217;43.960;10.954;2022-09-23T09:17:50;20.30;70.40
10344;DHT22;5217;43.960;10.954;2022-09-23T09:20:26;20.30;69.60
10344;DHT22;5217;43.960;10.954;2022-09-23T09:22:59;20.30;69.60
10344;DHT22;5217;43.960;10.954;2022-09-23T09:25:37;20.30;69.60
10344;DHT22;5217;43.960;10.954;2022-09-23T09:28:16;20.30;68.90
10344;DHT22;5217;43.960;10.954;2022-09-23T09:30:48;20.40;69.10
10344;DHT22;5217;43.960;10.954;2022-09-23T09:33:21;20.40;69.50
10344;DHT22;5217;43.960;10.954;2022-09-23T09:36:05;20.50;69.80
10344;DHT22;5217;43.960;10.954;2022-09-23T09:38:35;20.50;69.40
10344;DHT22;5217;43.960;10.954;2022-09-23T09:41:11;20.50;69.10
10344;DHT22;5217;43.960;10.954;2022-09-23T09:43:44;20.50;69.20
10344;DHT22;5217;43.960;10.954;2022-09-23T09:49:16;20.60;69.30
10344;DHT22;5217;43.960;10.954;2022-09-23T09:52:10;20.70;68.60
10344;DHT22;5217;43.960;10.954;2022-09-23T09:54:39;20.70;69.00
10344;DHT22;5217;43.960;10.954;2022-09-23T09:57:25;20.80;68.80
10344;DHT22;5217;43.960;10.954;2022-09-23T10:00:18;20.80;68.40
10344;DHT22;5217;43.960;10.954;2022-09-23T10:03:04;20.90;68.50
10344;DHT22;5217;43.960;10.954;2022-09-23T10:05:47;20.90;68.20
10344;DHT22;5217;43.960;10.954;2022-09-23T10:08:24;21.00;68.30
10344;DHT22;5217;43.960;10.954;2022-09-23T10:11:00;21.10;68.00
10344;DHT22;5217;43.960;10.954;2022-09-23T10:13:30;21.10;67.30
10344;DHT22;5217;43.960;10.954;2022-09-23T10:16:00;21.20;67.30
10344;DHT22;5217;43.960;10.954;2022-09-23T10:18:31;21.30;66.00
10344;DHT22;5217;43.960;10.954;2022-09-23T10:21:06;21.30;66.60
10344;DHT22;5217;43.960;10.954;2022-09-23T10:23:40;21.40;67.60
10344;DHT22;5217;43.960;10.954;2022-09-23T10:26:10;21.50;67.50
10344;DHT22;5217;43.960;10.954;2022-09-23T10:28:45;21.60;66.00
10344;DHT22;5217;43.960;10.954;2022-09-23T10:31:15;21.70;65.90
10344;DHT22;5217;43.960;10.954;2022-09-23T10:33:47;21.70;65.60
10344;DHT22;5217;43.960;10.954;2022-09-23T10:36:17;21.80;65.80
10344;DHT22;5217;43.960;10.954;2022-09-23T10:38:48;21.90;64.80
10344;DHT22;5217;43.960;10.954;2022-09-23T10:41:28;22.00;64.60
10344;DHT22;5217;43.960;10.954;2022-09-23T10:44:29;22.10;64.50
10344;DHT22;5217;43.960;10.954;2022-09-23T10:47:25;22.10;64.00
10344;DHT22;5217;43.960;10.954;2022-09-23T10:50:04;22.30;64.20
10344;DHT22;5217;43.960;10.954;2022-09-23T10:52:42;22.40;64.20
10344;DHT22;5217;43.960;10.954;2022-09-23T10:55:26;22.50;64.70
10344;DHT22;5217;43.960;10.954;2022-09-23T11:01:05;22.70;63.10
10344;DHT22;5217;43.960;10.954;2022-09-23T11:04:04;22.80;61.10
10344;DHT22;5217;43.960;10.954;2022-09-23T11:06:46;23.00;59.30
10344;DHT22;5217;43.960;10.954;2022-09-23T11:09:28;23.10;59.20
10344;DHT22;5217;43.960;10.954;2022-09-23T11:12:11;23.20;58.50
10344;DHT22;5217;43.960;10.954;2022-09-23T11:14:49;23.30;57.60
10344;DHT22;5217;43.960;10.954;2022-09-23T11:17:32;23.40;56.00
10344;DHT22;5217;43.960;10.954;2022-09-23T11:20:30;23.60;54.80
10344;DHT22;5217;43.960;10.954;2022-09-23T11:23:28;23.60;54.20
10344;DHT22;5217;43.960;10.954;2022-09-23T11:26:06;23.80;54.10
10344;DHT22;5217;43.960;10.954;2022-09-23T11:28:58;24.00;54.40
10344;DHT22;5217;43.960;10.954;2022-09-23T11:31:36;24.10;54.10
10344;DHT22;5217;43.960;10.954;2022-09-23T11:34:17;24.30;54.50
10344;DHT22;5217;43.960;10.954;2022-09-23T11:36:53;24.40;53.00
10344;DHT22;5217;43.960;10.954;2022-09-23T11:39:28;24.70;52.80
10344;DHT22;5217;43.960;10.954;2022-09-23T11:42:00;24.90;52.70
10344;DHT22;5217;43.960;10.954;2022-09-23T11:44:38;25.10;52.10
10344;DHT22;5217;43.960;10.954;2022-09-23T11:47:13;25.30;51.60
10344;DHT22;5217;43.960;10.954;2022-09-23T11:49:50;25.60;51.40
10344;DHT22;5217;43.960;10.954;2022-09-23T11:52:23;25.90;51.20
10344;DHT22;5217;43.960;10.954;2022-09-23T11:54:58;26.20;50.10
10344;DHT22;5217;43.960;10.954;2022-09-23T11:57:40;26.60;48.90
10344;DHT22;5217;43.960;10.954;2022-09-23T12:00:19;26.90;48.50
10344;DHT22;5217;43.960;10.954;2022-09-23T12:03:13;27.30;47.50
10344;DHT22;5217;43.960;10.954;2022-09-23T12:05:47;27.70;46.00
10344;DHT22;5217;43.960;10.954;2022-09-23T12:08:25;28.00;46.00
10344;DHT22;5217;43.960;10.954;2022-09-23T12:11:01;28.40;45.10
10344;DHT22;5217;43.960;10.954;2022-09-23T12:13:38;28.70;44.80
10344;DHT22;5217;43.960;10.954;2022-09-23T12:16:56;29.00;44.50
10344;DHT22;5217;43.960;10.954;2022-09-23T12:22:34;29.70;43.20
10344;DHT22;5217;43.960;10.954;2022-09-23T12:25:28;30.00;43.50
10344;DHT22;5217;43.960;10.954;2022-09-23T12:28:02;30.30;42.50
10344;DHT22;5217;43.960;10.954;2022-09-23T12:30:33;30.50;42.10
10344;DHT22;5217;43.960;10.954;2022-09-23T12:33:08;30.70;42.20
10344;DHT22;5217;43.960;10.954;2022-09-23T12:35:41;31.00;42.60
10344;DHT22;5217;43.960;10.954;2022-09-23T12:38:18;31.30;42.60
10344;DHT22;5217;43.960;10.954;2022-09-23T12:40:47;31.60;42.40
10344;DHT22;5217;43.960;10.954;2022-09-23T12:43:25;31.80;41.80
10344;DHT22;5217;43.960;10.954;2022-09-23T12:46:18;31.80;40.90
10344;DHT22;5217;43.960;10.954;2022-09-23T12:48:57;32.00;41.20
10344;DHT22;5217;43.960;10.954;2022-09-23T12:51:28;32.00;41.20
10344;DHT22;5217;43.960;10.954;2022-09-23T12:54:21;32.10;41.40
10344;DHT22;5217;43.960;10.954;2022-09-23T12:57:01;32.30;41.10
10344;DHT22;5217;43.960;10.954;2022-09-23T13:02:30;32.50;40.40
10344;DHT22;5217;43.960;10.954;2022-09-23T13:05:18;32.50;40.50
10344;DHT22;5217;43.960;10.954;2022-09-23T13:08:07;32.50;40.40
10344;DHT22;5217;43.960;10.954;2022-09-23T13:10:43;32.50;40.60
10344;DHT22;5217;43.960;10.954;2022-09-23T13:13:19;32.70;41.70
10344;DHT22;5217;43.960;10.954;2022-09-23T13:15:48;32.80;41.00
10344;DHT22;5217;43.960;10.954;2022-09-23T13:21:28;32.80;40.50
10344;DHT22;5217;43.960;10.954;2022-09-23T13:24:19;32.70;40.70
10344;DHT22;5217;43.960;10.954;2022-09-23T13:27:04;32.60;41.00
10344;DHT22;5217;43.960;10.954;2022-09-23T13:29:41;32.70;41.10
10344;DHT22;5217;43.960;10.954;2022-09-23T13:32:12;32.70;41.40
10344;DHT22;5217;43.960;10.954;2022-09-23T13:34:43;32.70;41.30
10344;DHT22;5217;43.960;10.954;2022-09-23T13:37:19;32.80;41.70
10344;DHT22;5217;43.960;10.954;2022-09-23T13:39:48;32.90;41.90
10344;DHT22;5217;43.960;10.954;2022-09-23T13:42:23;33.10;42.20
10344;DHT22;5217;43.960;10.954;2022-09-23T13:44:56;33.20;42.00
10344;DHT22;5217;43.960;10.954;2022-09-23T13:47:27;33.40;41.40
10344;DHT22;5217;43.960;10.954;2022-09-23T13:49:57;33.50;41.30
10344;DHT22;5217;43.960;10.954;2022-09-23T13:52:28;33.60;41.50
10344;DHT22;5217;43.960;10.954;2022-09-23T13:54:58;33.60;40.90
10344;DHT22;5217;43.960;10.954;2022-09-23T13:57:28;33.60;40.20
10344;DHT22;5217;43.960;10.954;2022-09-23T13:59:59;33.60;40.20
10344;DHT22;5217;43.960;10.954;2022-09-23T14:02:28;33.50;40.10
10344;DHT22;5217;43.960;10.954;2022-09-23T14:05:09;33.60;40.40
10344;DHT22;5217;43.960;10.954;2022-09-23T14:07:41;33.70;40.70
10344;DHT22;5217;43.960;10.954;2022-09-23T14:10:17;33.60;40.20
10344;DHT22;5217;43.960;10.954;2022-09-23T14:12:48;33.60;40.30
10344;DHT22;5217;43.960;10.954;2022-09-23T14:15:23;33.50;40.60
10344;DHT22;5217;43.960;10.954;2022-09-23T14:18:01;33.40;40.50
10344;DHT22;5217;43.960;10.954;2022-09-23T14:20:32;33.40;40.70
10344;DHT22;5217;43.960;10.954;2022-09-23T14:23:13;33.40;40.70
10344;DHT22;5217;43.960;10.954;2022-09-23T14:25:42;33.30;40.10
10344;DHT22;5217;43.960;10.954;2022-09-23T14:28:14;33.40;40.40
10344;DHT22;5217;43.960;10.954;2022-09-23T14:30:44;33.30;40.30
10344;DHT22;5217;43.960;10.954;2022-09-23T14:33:17;33.40;40.40
10344;DHT22;5217;43.960;10.954;2022-09-23T14:35:50;33.30;40.00
10344;DHT22;5217;43.960;10.954;2022-09-23T14:38:23;33.30;40.30
10344;DHT22;5217;43.960;10.954;2022-09-23T14:41:20;33.20;40.30
10344;DHT22;5217;43.960;10.954;2022-09-23T14:43:55;33.00;40.30
10344;DHT22;5217;43.960;10.954;2022-09-23T14:46:26;32.80;40.40
10344;DHT22;5217;43.960;10.954;2022-09-23T14:49:00;32.60;40.70
10344;DHT22;5217;43.960;10.954;2022-09-23T14:51:43;32.40;40.90
10344;DHT22;5217;43.960;10.954;2022-09-23T14:54:34;32.30;41.40
10344;DHT22;5217;43.960;10.954;2022-09-23T14:57:22;32.20;41.70
10344;DHT22;5217;43.960;10.954;2022-09-23T14:59:53;32.10;41.60
10344;DHT22;5217;43.960;10.954;2022-09-23T15:02:34;32.00;41.70
10344;DHT22;5217;43.960;10.954;2022-09-23T15:05:15;31.80;41.70
10344;DHT22;5217;43.960;10.954;2022-09-23T15:07:47;31.60;42.00
10344;DHT22;5217;43.960;10.954;2022-09-23T15:10:19;31.40;42.10
10344;DHT22;5217;43.960;10.954;2022-09-23T15:12:51;31.20;42.40
10344;DHT22;5217;43.960;10.954;2022-09-23T15:15:23;31.10;42.60
10344;DHT22;5217;43.960;10.954;2022-09-23T15:18:01;30.90;43.10
10344;DHT22;5217;43.960;10.954;2022-09-23T15:20:31;30.80;43.60
10344;DHT22;5217;43.960;10.954;2022-09-23T15:23:01;30.70;43.80
10344;DHT22;5217;43.960;10.954;2022-09-23T15:25:33;30.60;43.50
10344;DHT22;5217;43.960;10.954;2022-09-23T15:28:16;30.50;43.50
10344;DHT22;5217;43.960;10.954;2022-09-23T15:30:45;30.40;43.20
10344;DHT22;5217;43.960;10.954;2022-09-23T15:33:17;30.20;43.50
10344;DHT22;5217;43.960;10.954;2022-09-23T15:35:55;30.10;43.80
10344;DHT22;5217;43.960;10.954;2022-09-23T15:38:24;30.00;44.20
10344;DHT22;5217;43.960;10.954;2022-09-23T15:40:55;29.90;44.20
10344;DHT22;5217;43.960;10.954;2022-09-23T15:43:24;29.70;44.20
10344;DHT22;5217;43.960;10.954;2022-09-23T15:45:55;29.50;44.30
10344;DHT22;5217;43.960;10.954;2022-09-23T15:48:27;29.40;44.90
10344;DHT22;5217;43.960;10.954;2022-09-23T15:51:03;29.30;45.10
10344;DHT22;5217;43.960;10.954;2022-09-23T15:53:35;29.20;45.00
10344;DHT22;5217;43.960;10.954;2022-09-23T15:56:13;29.10;45.00
10344;DHT22;5217;43.960;10.954;2022-09-23T15:58:42;29.00;45.00
10344;DHT22;5217;43.960;10.954;2022-09-23T16:01:14;28.80;45.00
10344;DHT22;5217;43.960;10.954;2022-09-23T16:03:45;28.80;45.50
10344;DHT22;5217;43.960;10.954;2022-09-23T16:06:13;28.70;45.80
10344;DHT22;5217;43.960;10.954;2022-09-23T16:08:42;28.60;45.90
10344;DHT22;5217;43.960;10.954;2022-09-23T16:11:17;28.50;46.00
10344;DHT22;5217;43.960;10.954;2022-09-23T16:13:46;28.50;46.20
10344;DHT22;5217;43.960;10.954;2022-09-23T16:16:15;28.40;46.40
10344;DHT22;5217;43.960;10.954;2022-09-23T16:18:46;28.30;46.90
10344;DHT22;5217;43.960;10.954;2022-09-23T16:21:16;28.20;46.80
10344;DHT22;5217;43.960;10.954;2022-09-23T16:23:46;28.20;47.10
10344;DHT22;5217;43.960;10.954;2022-09-23T16:26:18;28.10;47.40
10344;DHT22;5217;43.960;10.954;2022-09-23T16:28:49;28.00;47.30